< < Back
Terminal Aerodrome Forecast


Current Version              Previous Versions:   1  2  3  4  5  6  7  8  9  

Terminal Aerodrome Forecast

332
FTUS42 KFFC 311100
TAFFTY
TAF
KFTY 311130Z 3112/0112 00000KT P6SM BKN150
     FM311600 08004KT P6SM SCT040 SCT150
     FM311800 06006KT P6SM BKN050
     FM010000 07005KT P6SM BKN150
     FM010900 06008KT 6SM BR BKN008 PROB30 0109/0112 4SM -RA BR=

Latest METAR

654
SAUS70 KWBC 311800
MTRFTY
METAR KFTY 311753Z 01007KT 10SM CLR 27/21 A3006 RMK AO2 SLP172 T02720206
10272 20211 58005


USA.gov is the U.S. government's official web portal to all federal, state and local government web resources and services.